Peniel Crossroads, South Carolina
Current Conditions -  °F | °C
As of 6:53 AM on Wednesday 28 Jan 2015 (Local Time) from KFLO Reporting Station
Clear Clear  
Wind Chill: 21°   Ceiling: Unl
Heat Index: 29°   Visibility: 10mi
Dew Point: 13°   Wind: 8mph
Humidity: 51%   Direction: 340°NNW
Pressure: 30.18"   Gusts: NA
Location:  34.07°N, 79.933°W
Report Text: KFLO 281153Z 34007KT 10SM CLR M02/M11 A3018 RMK AO2 SLP219 T10171106 10028 21017 53031
Loading
Personal Weather Stations






























Interactive Weather Map New forecast layout! Learn more

10-Day Weather Forecast

Advertisements
Track Severe Weather on mobile